Time;durP1;ratioP1;P1;durP2;ratioP2;P2;SDS_P1;SDS_P2;PMS_P1;PMS_P2;Temp;Humidity;BMP_temperature;BMP_pressure;BME280_temperature;BME280_humidity;BME280_pressure;Samples;Min_cycle;Max_cycle;Signal;HPM_P1;HPM_P2
2021/11/04 00:00:49;;;;;;;34.70;22.00;;;;;4.30;99897.00;;;;10535134;28;20218;-77
2021/11/04 00:05:51;;;;;;;40.50;22.70;;;;;4.30;99896.00;;;;10551377;28;20196;-78
2021/11/04 00:10:53;;;;;;;33.30;21.73;;;;;4.20;99895.00;;;;10551427;28;20205;-78
2021/11/04 00:15:55;;;;;;;33.40;19.80;;;;;4.10;99892.00;;;;10534477;28;20192;-77
2021/11/04 00:20:57;;;;;;;33.13;21.63;;;;;4.00;99891.00;;;;10534582;28;20196;-77
2021/11/04 00:26:00;;;;;;;30.83;19.97;;;;;3.90;99886.00;;;;10567720;28;20238;-78
2021/11/04 00:31:02;;;;;;;28.83;19.17;;;;;3.90;99891.00;;;;10508736;28;20213;-77
2021/11/04 00:36:05;;;;;;;30.80;19.63;;;;;3.80;99885.00;;;;10492132;28;20200;-78
2021/11/04 00:41:09;;;;;;;31.53;19.77;;;;;3.80;99884.00;;;;10508066;28;20548;-78
2021/11/04 00:46:12;;;;;;;29.87;20.80;;;;;3.80;99882.00;;;;10508566;28;20265;-78
2021/11/04 00:51:14;;;;;;;33.00;20.43;;;;;3.70;99874.00;;;;10507991;28;20205;-78
2021/11/04 00:56:16;;;;;;;32.47;19.80;;;;;3.60;99870.00;;;;10491321;28;20242;-77
2021/11/04 01:01:20;;;;;;;26.97;18.80;;;;;3.50;99876.00;;;;10490358;28;20717;-78
2021/11/04 01:06:22;;;;;;;29.30;18.43;;;;;3.50;99878.00;;;;10501016;28;20199;-78
2021/11/04 01:11:24;;;;;;;26.73;18.63;;;;;3.50;99878.00;;;;10532298;28;20204;-78
2021/11/04 01:16:26;;;;;;;26.13;17.67;;;;;3.40;99882.00;;;;10531819;28;20200;-77
2021/11/04 01:21:29;;;;;;;31.70;20.03;;;;;3.40;99872.00;;;;10531691;28;20221;-78
2021/11/04 01:26:31;;;;;;;31.23;20.40;;;;;3.40;99873.00;;;;10513752;28;20222;-78
2021/11/04 01:31:32;;;;;;;33.53;20.60;;;;;3.40;99868.00;;;;10531738;28;20212;-78
2021/11/04 01:36:35;;;;;;;29.07;19.03;;;;;3.30;99879.00;;;;10532002;28;21022;-78
2021/11/04 01:41:37;;;;;;;33.67;19.10;;;;;3.30;99871.00;;;;10514631;28;20192;-77
2021/11/04 01:46:39;;;;;;;37.43;19.80;;;;;3.30;99880.00;;;;10531029;28;20254;-77
2021/11/04 01:51:42;;;;;;;30.23;19.73;;;;;3.30;99867.00;;;;10530763;28;20306;-78
2021/11/04 01:56:44;;;;;;;35.40;20.20;;;;;3.30;99885.00;;;;10513952;28;20189;-78
2021/11/04 02:01:50;;;;;;;39.83;22.07;;;;;3.30;99878.00;;;;10513815;28;20188;-79
2021/11/04 02:07:04;;;;;;;43.70;21.57;;;;;3.30;99887.00;;;;10514538;28;20201;-79
2021/11/04 02:12:13;;;;;;;40.63;21.10;;;;;3.30;99895.00;;;;10498131;28;20236;-79
2021/11/04 02:17:16;;;;;;;47.60;21.53;;;;;3.30;99895.00;;;;10498461;28;20214;-79
2021/11/04 02:22:27;;;;;;;47.80;21.37;;;;;3.30;99892.00;;;;10514591;28;20697;-79
2021/11/04 02:27:29;;;;;;;44.60;23.17;;;;;3.30;99898.00;;;;10514541;28;20664;-79
2021/11/04 02:32:32;;;;;;;45.17;22.80;;;;;3.30;99910.00;;;;10514378;28;20234;-78
2021/11/04 02:37:35;;;;;;;42.93;24.33;;;;;3.30;99903.00;;;;10497474;28;20189;-79
2021/11/04 02:42:38;;;;;;;41.10;25.30;;;;;3.40;99904.00;;;;10497625;28;20537;-79
2021/11/04 02:47:40;;;;;;;43.87;25.50;;;;;3.50;99907.00;;;;10496805;28;20266;-79
2021/11/04 02:52:42;;;;;;;51.57;24.37;;;;;3.50;99913.00;;;;10496057;28;20220;-78
2021/11/04 02:57:49;;;;;;;54.40;24.87;;;;;3.50;99916.00;;;;10512864;28;20193;-79
2021/11/04 03:02:51;;;;;;;50.27;24.43;;;;;3.50;99910.00;;;;10512624;28;20197;-78
2021/11/04 03:07:53;;;;;;;49.80;24.23;;;;;3.40;99901.00;;;;10495813;28;20193;-79
2021/11/04 03:12:54;;;;;;;45.47;22.60;;;;;3.40;99903.00;;;;10511820;28;20277;-79
2021/11/04 03:17:57;;;;;;;39.77;22.50;;;;;3.40;99908.00;;;;10512619;28;20197;-79
2021/11/04 03:23:00;;;;;;;45.03;24.67;;;;;3.40;99910.00;;;;10495123;28;20192;-79
2021/11/04 03:28:03;;;;;;;39.77;23.17;;;;;3.40;99924.00;;;;10513125;28;20188;-79
2021/11/04 03:33:08;;;;;;;39.97;23.40;;;;;3.50;99942.00;;;;10536727;28;20257;-79
2021/11/04 03:38:12;;;;;;;39.47;23.67;;;;;3.50;99948.00;;;;10553290;28;20278;-79
2021/11/04 03:43:15;;;;;;;39.13;24.07;;;;;3.60;99951.00;;;;10553830;28;20176;-79
2021/11/04 03:48:18;;;;;;;40.60;24.10;;;;;3.60;99938.00;;;;10519461;28;20588;-79
2021/11/04 03:53:20;;;;;;;44.57;24.47;;;;;3.70;99949.00;;;;10535962;28;20212;-79
2021/11/04 03:58:25;;;;;;;39.87;23.00;;;;;3.70;99958.00;;;;10548827;28;20219;-78
2021/11/04 04:03:27;;;;;;;38.63;24.23;;;;;3.80;99963.00;;;;10494021;28;20188;-79
2021/11/04 04:08:31;;;;;;;43.77;26.30;;;;;3.90;99963.00;;;;10538869;28;20594;-79
2021/11/04 04:13:33;;;;;;;40.53;27.10;;;;;4.10;99976.00;;;;10518261;28;20257;-79
2021/11/04 04:18:39;;;;;;;44.37;28.77;;;;;4.20;99987.00;;;;10536209;28;20200;-79
2021/11/04 04:23:41;;;;;;;41.73;25.40;;;;;4.30;99978.00;;;;10534298;28;20188;-79
2021/11/04 04:28:43;;;;;;;42.97;26.20;;;;;4.30;99974.00;;;;10534644;28;20700;-79
2021/11/04 04:33:47;;;;;;;44.00;24.80;;;;;4.40;99985.00;;;;10518261;28;20211;-79
2021/11/04 04:38:49;;;;;;;43.63;25.43;;;;;4.40;99987.00;;;;10533694;28;20192;-79
2021/11/04 04:43:51;;;;;;;42.43;25.00;;;;;4.50;99994.00;;;;10550450;28;20184;-78
2021/11/04 04:48:53;;;;;;;41.53;25.13;;;;;4.50;99997.00;;;;10550349;28;20209;-79
2021/11/04 04:53:55;;;;;;;40.30;25.47;;;;;4.60;99997.00;;;;10517030;28;20219;-79
2021/11/04 04:58:58;;;;;;;44.00;26.13;;;;;4.60;99990.00;;;;10532231;28;20397;-79
2021/11/04 05:04:00;;;;;;;40.80;26.10;;;;;4.70;100000.00;;;;10533568;28;20253;-79
2021/11/04 05:09:04;;;;;;;47.47;27.70;;;;;4.80;99994.00;;;;10492627;28;20200;-79
2021/11/04 05:14:06;;;;;;;50.17;28.73;;;;;4.90;99988.00;;;;10508231;28;20209;-78
2021/11/04 05:19:10;;;;;;;51.10;31.87;;;;;4.90;99993.00;;;;10491319;28;20201;-78
2021/11/04 05:24:12;;;;;;;54.20;33.30;;;;;5.00;99990.00;;;;10507964;28;20228;-78
2021/11/04 05:29:14;;;;;;;60.83;35.77;;;;;5.00;99990.00;;;;10532397;28;20204;-78
2021/11/04 05:34:16;;;;;;;59.67;36.37;;;;;5.00;99990.00;;;;10532276;28;20643;-78
2021/11/04 05:39:18;;;;;;;57.27;34.93;;;;;4.90;99991.00;;;;10549064;28;20286;-78
2021/11/04 05:44:20;;;;;;;61.70;35.20;;;;;4.80;99989.00;;;;10531782;28;20617;-78
2021/11/04 05:49:21;;;;;;;62.23;36.63;;;;;4.70;99986.00;;;;10531218;28;20212;-79
2021/11/04 05:54:23;;;;;;;60.67;34.87;;;;;4.50;100002.00;;;;10532113;28;20239;-79
2021/11/04 05:59:25;;;;;;;58.10;33.43;;;;;4.40;100006.00;;;;10532189;28;20204;-79
2021/11/04 06:04:32;;;;;;;56.17;34.23;;;;;4.20;100012.00;;;;10531100;28;20192;-79
2021/11/04 06:09:34;;;;;;;53.53;31.83;;;;;4.10;100011.00;;;;10547574;28;20187;-79
2021/11/04 06:14:37;;;;;;;56.30;34.70;;;;;4.00;100009.00;;;;10547336;28;20204;-79
2021/11/04 06:19:39;;;;;;;62.10;35.13;;;;;4.00;100016.00;;;;10564671;28;20176;-79
2021/11/04 06:24:40;;;;;;;59.27;35.23;;;;;4.00;100027.00;;;;10530996;28;20189;-79
2021/11/04 06:29:42;;;;;;;58.87;34.90;;;;;3.90;100032.00;;;;10514362;28;20242;-79
2021/11/04 06:34:44;;;;;;;67.10;36.63;;;;;3.80;100026.00;;;;10530151;28;20208;-79
2021/11/04 06:39:46;;;;;;;66.50;34.37;;;;;3.80;100038.00;;;;10530620;28;20576;-80
2021/11/04 06:44:48;;;;;;;65.60;35.50;;;;;3.80;100045.00;;;;10515003;28;20639;-79
2021/11/04 06:49:52;;;;;;;67.37;34.60;;;;;3.90;100039.00;;;;10554765;28;20583;-79
2021/11/04 06:54:57;;;;;;;64.87;33.90;;;;;3.90;100045.00;;;;10538250;28;20216;-79
2021/11/04 07:00:04;;;;;;;68.40;37.13;;;;;4.10;100066.00;;;;10538669;28;20194;-79
2021/11/04 07:05:07;;;;;;;66.27;38.67;;;;;4.20;100076.00;;;;10520719;28;20658;-79
2021/11/04 07:10:18;;;;;;;60.63;36.73;;;;;4.30;100075.00;;;;10511741;28;20219;-79
2021/11/04 07:15:21;;;;;;;71.97;38.47;;;;;4.40;100090.00;;;;10478643;28;20291;-79
2021/11/04 07:20:23;;;;;;;75.43;39.53;;;;;4.50;100096.00;;;;10478452;28;20185;-79
2021/11/04 07:25:27;;;;;;;84.97;41.33;;;;;4.60;100096.00;;;;10478242;28;20193;-79
2021/11/04 07:30:30;;;;;;;81.43;42.07;;;;;4.70;100098.00;;;;10527607;28;20698;-79
2021/11/04 07:35:38;;;;;;;78.67;40.53;;;;;4.80;100102.00;;;;10494604;28;20593;-79
2021/11/04 07:40:40;;;;;;;74.50;38.60;;;;;4.80;100104.00;;;;10510696;28;20196;-79
2021/11/04 07:45:42;;;;;;;87.70;42.30;;;;;5.00;100122.00;;;;10511155;28;20211;-79
2021/11/04 07:50:48;;;;;;;73.13;40.70;;;;;5.30;100116.00;;;;10510479;28;20224;-79
2021/11/04 07:55:50;;;;;;;83.57;39.90;;;;;5.80;100112.00;;;;10508751;28;20201;-78
2021/11/04 08:00:52;;;;;;;86.10;39.53;;;;;6.20;100127.00;;;;10518655;28;20784;-79
2021/11/04 08:05:54;;;;;;;77.10;39.57;;;;;6.90;100147.00;;;;10518511;28;20195;-79
2021/11/04 08:10:56;;;;;;;77.87;41.00;;;;;7.10;100159.00;;;;10551591;28;20200;-79
2021/11/04 08:15:58;;;;;;;78.97;40.93;;;;;6.80;100161.00;;;;10534534;28;20212;-78
2021/11/04 08:21:00;;;;;;;72.93;39.07;;;;;6.70;100163.00;;;;10535017;28;20195;-78
2021/11/04 08:26:05;;;;;;;67.10;37.17;;;;;6.70;100153.00;;;;10518345;28;20254;-79
2021/11/04 08:31:08;;;;;;;57.17;32.67;;;;;6.60;100161.00;;;;10534254;28;20260;-79
2021/11/04 08:36:10;;;;;;;51.60;30.93;;;;;6.40;100163.00;;;;10534517;28;20192;-79
2021/11/04 08:41:13;;;;;;;62.70;31.17;;;;;6.50;100173.00;;;;10567058;28;20211;-78
2021/11/04 08:46:15;;;;;;;60.17;32.63;;;;;6.70;100174.00;;;;10533681;28;20887;-79
2021/11/04 08:51:17;;;;;;;55.10;31.57;;;;;6.80;100181.00;;;;10550055;28;20261;-78
2021/11/04 08:56:19;;;;;;;55.00;31.20;;;;;7.40;100176.00;;;;10532972;28;20249;-78
2021/11/04 09:01:21;;;;;;;68.83;35.17;;;;;7.90;100188.00;;;;10507815;28;20197;-78
2021/11/04 09:06:23;;;;;;;52.90;31.00;;;;;8.40;100187.00;;;;10501960;28;20196;-78
2021/11/04 09:11:25;;;;;;;43.97;25.73;;;;;8.20;100196.00;;;;10566177;28;20231;-78
2021/11/04 09:16:44;;;;;;;42.40;23.87;;;;;7.80;100195.00;;;;10549072;28;20196;-78
2021/11/04 09:21:46;;;;;;;38.17;24.73;;;;;7.60;100200.00;;;;10532686;28;20192;-77
2021/11/04 09:26:48;;;;;;;40.63;25.30;;;;;8.70;100207.00;;;;10516065;28;20544;-77
2021/11/04 09:31:50;;;;;;;46.03;27.07;;;;;9.50;100209.00;;;;10565099;28;20208;-78
2021/11/04 09:36:52;;;;;;;37.63;23.17;;;;;9.50;100218.00;;;;10548475;28;20223;-78
2021/11/04 09:41:55;;;;;;;33.30;22.33;;;;;9.10;100220.00;;;;10531743;28;20184;-78
2021/11/04 09:46:57;;;;;;;25.97;18.77;;;;;9.10;100216.00;;;;10509177;28;20244;-78
2021/11/04 09:51:59;;;;;;;27.80;20.13;;;;;9.70;100217.00;;;;10505055;28;20209;-77
2021/11/04 09:57:07;;;;;;;29.50;20.30;;;;;9.60;100220.00;;;;10493158;28;20618;-77
2021/11/04 10:02:20;;;;;;;28.67;19.30;;;;;9.20;100227.00;;;;10513436;28;20191;-77
2021/11/04 10:07:22;;;;;;;28.83;18.77;;;;;9.30;100245.00;;;;10547064;28;20206;-77
2021/11/04 10:12:24;;;;;;;27.40;18.57;;;;;9.70;100250.00;;;;10546803;28;20246;-77
2021/11/04 10:17:36;;;;;;;25.27;16.80;;;;;10.00;100263.00;;;;10530313;28;20227;-77
2021/11/04 10:22:38;;;;;;;26.60;17.37;;;;;9.60;100260.00;;;;10569584;28;20203;-78
2021/11/04 10:27:40;;;;;;;28.23;19.53;;;;;9.50;100263.00;;;;10554740;28;20607;-77
2021/11/04 10:32:42;;;;;;;30.77;19.60;;;;;9.70;100258.00;;;;10538080;28;20216;-78
2021/11/04 10:37:45;;;;;;;32.13;20.63;;;;;9.70;100262.00;;;;10554787;28;20655;-78
2021/11/04 10:42:57;;;;;;;26.77;19.00;;;;;9.50;100246.00;;;;10554902;28;20186;-78
2021/11/04 10:48:16;;;;;;;33.07;22.27;;;;;9.50;100245.00;;;;10554916;28;20241;-77
2021/11/04 10:53:22;;;;;;;34.40;22.27;;;;;9.80;100233.00;;;;10555377;28;20211;-78
2021/11/04 10:58:34;;;;;;;33.83;21.30;;;;;10.20;100223.00;;;;10537787;28;20192;-79
2021/11/04 11:03:37;;;;;;;35.27;22.53;;;;;10.10;100232.00;;;;10521425;28;20196;-78
2021/11/04 11:08:39;;;;;;;30.53;20.30;;;;;9.90;100236.00;;;;10570824;28;20263;-78
2021/11/04 11:13:40;;;;;;;32.33;19.83;;;;;9.90;100242.00;;;;10570976;28;20212;-78
2021/11/04 11:18:43;;;;;;;38.03;21.33;;;;;9.80;100233.00;;;;10495919;28;20252;-78
2021/11/04 11:23:45;;;;;;;32.63;19.77;;;;;9.90;100233.00;;;;10544943;28;20189;-78
2021/11/04 11:28:48;;;;;;;32.73;19.87;;;;;10.30;100237.00;;;;10502299;28;20233;-78
2021/11/04 11:34:16;;;;;;;31.10;20.20;;;;;10.50;100245.00;;;;10536065;28;20239;-77
2021/11/04 11:39:18;;;;;;;33.53;20.17;;;;;10.70;100250.00;;;;10552136;28;20228;-78
2021/11/04 11:44:42;;;;;;;30.83;19.73;;;;;10.90;100255.00;;;;10535783;28;20229;-78
2021/11/04 11:49:47;;;;;;;33.33;19.57;;;;;11.00;100253.00;;;;10569626;28;20261;-78
2021/11/04 11:54:49;;;;;;;30.07;18.63;;;;;11.00;100253.00;;;;10536296;28;20630;-78
2021/11/04 11:59:53;;;;;;;30.23;18.33;;;;;11.10;100255.00;;;;10552222;28;20192;-78
2021/11/04 12:05:34;;;;;;;31.67;19.37;;;;;11.10;100262.00;;;;10535883;28;20253;-78
2021/11/04 12:10:40;;;;;;;25.50;16.37;;;;;11.30;100254.00;;;;10509670;28;20709;-78
2021/11/04 12:16:09;;;;;;;26.77;17.70;;;;;11.50;100261.00;;;;10509370;28;20240;-78
2021/11/04 12:21:17;;;;;;;21.53;16.13;;;;;11.60;100271.00;;;;10491536;28;20196;-78
2021/11/04 12:26:27;;;;;;;21.03;15.43;;;;;11.60;100279.00;;;;10508445;28;20197;-78
2021/11/04 12:31:30;;;;;;;19.53;14.00;;;;;11.70;100273.00;;;;10475390;28;20213;-78
2021/11/04 12:36:35;;;;;;;19.27;15.00;;;;;11.60;100289.00;;;;10525268;28;20552;-78
2021/11/04 12:41:45;;;;;;;19.17;14.13;;;;;11.10;100288.00;;;;10491643;28;20656;-77
2021/11/04 12:46:49;;;;;;;17.17;12.80;;;;;10.60;100274.00;;;;10524017;28;20204;-78
2021/11/04 12:51:54;;;;;;;17.90;13.57;;;;;10.30;100281.00;;;;10507496;28;20736;-79
2021/11/04 12:56:58;;;;;;;23.43;15.27;;;;;10.50;100276.00;;;;10508832;28;20185;-78
2021/11/04 13:02:04;;;;;;;21.37;15.23;;;;;10.60;100278.00;;;;10533763;28;20207;-78
2021/11/04 13:07:22;;;;;;;19.73;13.70;;;;;10.40;100284.00;;;;10507750;28;20254;-78
2021/11/04 13:12:34;;;;;;;18.97;13.00;;;;;10.10;100274.00;;;;10506658;28;20964;-79
2021/11/04 13:17:39;;;;;;;20.17;13.00;;;;;10.10;100281.00;;;;10507568;28;20271;-79
2021/11/04 13:22:44;;;;;;;21.70;13.47;;;;;10.30;100274.00;;;;10506513;28;20614;-79
2021/11/04 13:27:52;;;;;;;20.03;14.67;;;;;10.20;100275.00;;;;10490451;28;20678;-79
2021/11/04 13:32:54;;;;;;;22.03;15.20;;;;;10.30;100284.00;;;;10506106;28;20232;-78
2021/11/04 13:38:25;;;;;;;18.63;10.10;;;;;10.50;100279.00;;;;10489794;28;20185;-79
2021/11/04 13:43:35;;;;;;;11.57;5.93;;;;;10.70;100279.00;;;;10488880;28;20185;-79
2021/11/04 13:48:46;;;;;;;9.97;4.80;;;;;10.80;100285.00;;;;10505981;28;20266;-79
2021/11/04 13:53:48;;;;;;;9.43;4.47;;;;;11.20;100296.00;;;;10506380;28;20236;-78
2021/11/04 13:58:50;;;;;;;10.90;4.50;;;;;11.30;100306.00;;;;10522579;28;20200;-78
2021/11/04 14:04:06;;;;;;;10.83;5.37;;;;;11.10;100310.00;;;;10522636;28;20200;-78
2021/11/04 14:09:09;;;;;;;16.30;5.87;;;;;11.20;100317.00;;;;10523602;28;20192;-78
2021/11/04 14:14:11;;;;;;;10.23;4.37;;;;;11.00;100316.00;;;;10488920;28;20258;-78
2021/11/04 14:19:14;;;;;;;10.10;4.30;;;;;10.60;100313.00;;;;10506192;28;20224;-78
2021/11/04 14:24:16;;;;;;;9.30;3.90;;;;;10.60;100322.00;;;;10540195;28;20205;-78
2021/11/04 14:29:18;;;;;;;10.93;4.30;;;;;10.40;100317.00;;;;10518949;28;20200;-78
2021/11/04 14:34:23;;;;;;;10.87;4.23;;;;;10.10;100323.00;;;;10533120;28;20208;-78
2021/11/04 14:39:25;;;;;;;8.67;4.37;;;;;9.90;100332.00;;;;10532852;28;20581;-78
2021/11/04 14:44:27;;;;;;;10.67;4.90;;;;;9.80;100335.00;;;;10532607;28;20185;-78
2021/11/04 14:49:29;;;;;;;11.20;4.70;;;;;9.70;100346.00;;;;10532107;28;20223;-78
2021/11/04 14:54:31;;;;;;;11.43;5.33;;;;;9.60;100348.00;;;;10531572;28;20219;-78
2021/11/04 14:59:33;;;;;;;12.90;5.03;;;;;9.60;100343.00;;;;10548449;28;20655;-78
2021/11/04 15:04:35;;;;;;;11.77;4.93;;;;;9.60;100348.00;;;;10552052;28;20250;-78
2021/11/04 15:09:37;;;;;;;9.50;4.90;;;;;9.50;100364.00;;;;10513442;28;20205;-78
2021/11/04 15:14:40;;;;;;;8.13;4.47;;;;;9.30;100368.00;;;;10513338;28;20205;-78
2021/11/04 15:19:42;;;;;;;11.27;5.33;;;;;9.20;100382.00;;;;10513392;28;20193;-78
2021/11/04 15:24:44;;;;;;;13.93;4.83;;;;;9.10;100377.00;;;;10513355;28;20215;-78
2021/11/04 15:29:46;;;;;;;13.60;5.17;;;;;9.00;100382.00;;;;10528128;28;20200;-78
2021/11/04 15:34:48;;;;;;;11.47;4.57;;;;;8.90;100388.00;;;;10554584;28;20242;-78
2021/11/04 15:39:50;;;;;;;12.80;4.30;;;;;8.80;100387.00;;;;10571931;28;20231;-78
2021/11/04 15:44:52;;;;;;;13.27;5.07;;;;;8.70;100398.00;;;;10555198;28;20307;-78
2021/11/04 15:49:54;;;;;;;9.83;3.70;;;;;8.70;100399.00;;;;10538608;28;20216;-78
2021/11/04 15:54:56;;;;;;;11.67;4.27;;;;;8.70;100426.00;;;;10554875;28;20200;-78
2021/11/04 15:59:58;;;;;;;9.30;3.87;;;;;8.80;100429.00;;;;10554313;28;20623;-78
2021/11/04 16:05:00;;;;;;;9.60;3.30;;;;;8.80;100444.00;;;;10529577;28;20201;-78
2021/11/04 16:10:02;;;;;;;8.23;3.43;;;;;8.80;100450.00;;;;10511582;28;20246;-78
2021/11/04 16:15:04;;;;;;;11.67;3.53;;;;;8.60;100450.00;;;;10511410;28;20745;-78
2021/11/04 16:20:07;;;;;;;10.13;3.43;;;;;8.50;100457.00;;;;10533256;28;20200;-78
2021/11/04 16:25:09;;;;;;;11.70;3.83;;;;;8.40;100460.00;;;;10568932;28;20180;-78
2021/11/04 16:30:11;;;;;;;10.93;4.20;;;;;8.40;100473.00;;;;10536173;28;20200;-78
2021/11/04 16:35:13;;;;;;;6.93;3.67;;;;;8.40;100472.00;;;;10551881;28;20595;-78
2021/11/04 16:40:16;;;;;;;10.73;4.13;;;;;8.50;100494.00;;;;10552032;28;20220;-78
2021/11/04 16:45:19;;;;;;;12.07;3.87;;;;;8.40;100488.00;;;;10534739;28;20603;-77
2021/11/04 16:50:21;;;;;;;8.33;4.20;;;;;8.40;100498.00;;;;10534963;28;20236;-78
2021/11/04 16:55:24;;;;;;;12.97;7.20;;;;;8.40;100500.00;;;;10534904;28;20201;-77
2021/11/04 17:00:26;;;;;;;6.10;3.40;;;;;8.30;100515.00;;;;10534552;28;20326;-78
2021/11/04 17:05:28;;;;;;;9.33;3.73;;;;;8.20;100519.00;;;;10517751;28;20192;-78
2021/11/04 17:10:30;;;;;;;7.57;3.13;;;;;8.10;100519.00;;;;10551396;28;20223;-78
2021/11/04 17:15:32;;;;;;;8.07;3.83;;;;;8.10;100545.00;;;;10550537;28;20208;-78
2021/11/04 17:20:34;;;;;;;8.93;3.90;;;;;8.00;100546.00;;;;10567720;28;20184;-78
2021/11/04 17:25:36;;;;;;;6.57;3.87;;;;;8.00;100542.00;;;;10516934;28;20195;-78
2021/11/04 17:30:40;;;;;;;10.57;4.40;;;;;7.80;100555.00;;;;10532906;28;20196;-78
2021/11/04 17:35:42;;;;;;;7.50;4.53;;;;;7.80;100553.00;;;;10532839;28;20207;-78
2021/11/04 17:40:44;;;;;;;7.23;4.37;;;;;7.70;100565.00;;;;10549507;28;20233;-78
2021/11/04 17:45:47;;;;;;;12.33;5.07;;;;;7.60;100574.00;;;;10566253;28;20622;-78
2021/11/04 17:50:49;;;;;;;10.23;5.60;;;;;7.50;100583.00;;;;10531898;28;20717;-78
2021/11/04 17:55:51;;;;;;;8.23;4.50;;;;;7.40;100604.00;;;;10549068;28;20208;-78
2021/11/04 18:00:54;;;;;;;14.37;6.30;;;;;7.40;100612.00;;;;10524225;28;20207;-78
2021/11/04 18:05:56;;;;;;;13.23;6.23;;;;;7.50;100619.00;;;;10523512;28;20193;-78
2021/11/04 18:10:58;;;;;;;17.50;6.53;;;;;7.60;100637.00;;;;10490915;28;20189;-78
2021/11/04 18:15:59;;;;;;;14.70;6.23;;;;;7.70;100646.00;;;;10540058;28;20205;-78
2021/11/04 18:21:02;;;;;;;14.13;6.67;;;;;7.70;100659.00;;;;10524192;28;20469;-78
2021/11/04 18:26:05;;;;;;;15.10;6.80;;;;;7.80;100670.00;;;;10507563;28;20607;-78
2021/11/04 18:31:08;;;;;;;12.23;6.53;;;;;7.90;100691.00;;;;10508531;28;20246;-78
2021/11/04 18:36:10;;;;;;;14.47;6.63;;;;;8.00;100695.00;;;;10523434;28;20330;-78
2021/11/04 18:41:12;;;;;;;18.40;7.23;;;;;8.00;100715.00;;;;10558464;28;20193;-79
2021/11/04 18:46:15;;;;;;;11.47;5.50;;;;;8.00;100719.00;;;;10531037;28;20208;-78
2021/11/04 18:51:27;;;;;;;13.80;5.97;;;;;8.00;100727.00;;;;10528965;28;20224;-78
2021/11/04 18:56:29;;;;;;;14.17;6.33;;;;;8.10;100724.00;;;;10513330;28;20213;-78
2021/11/04 19:01:32;;;;;;;8.70;5.40;;;;;8.10;100726.00;;;;10529867;28;20205;-78
2021/11/04 19:06:34;;;;;;;13.73;5.80;;;;;8.10;100738.00;;;;10512935;28;20223;-77
2021/11/04 19:11:36;;;;;;;11.00;5.50;;;;;8.10;100742.00;;;;10530942;28;20246;-78
2021/11/04 19:16:39;;;;;;;6.73;4.47;;;;;8.10;100753.00;;;;10530551;28;20262;-78
2021/11/04 19:21:41;;;;;;;9.80;5.13;;;;;8.10;100756.00;;;;10514040;28;20192;-77
2021/11/04 19:26:43;;;;;;;11.23;5.37;;;;;8.10;100750.00;;;;10512856;28;20238;-77
2021/11/04 19:31:45;;;;;;;7.27;4.83;;;;;8.10;100755.00;;;;10528945;28;20227;-78
2021/11/04 19:36:48;;;;;;;6.90;4.80;;;;;8.10;100766.00;;;;10512471;28;20212;-77
2021/11/04 19:41:51;;;;;;;10.77;5.77;;;;;8.10;100770.00;;;;10528568;28;20192;-78
2021/11/04 19:47:02;;;;;;;6.27;4.97;;;;;8.20;100777.00;;;;10511702;28;20235;-78
2021/11/04 19:52:06;;;;;;;8.23;4.77;;;;;8.20;100784.00;;;;10528695;28;20284;-78
2021/11/04 19:57:09;;;;;;;11.77;6.17;;;;;8.20;100787.00;;;;10511383;28;20300;-78
2021/11/04 20:02:11;;;;;;;8.23;4.67;;;;;8.20;100791.00;;;;10527372;28;20224;-78
2021/11/04 20:07:12;;;;;;;8.07;5.43;;;;;8.30;100799.00;;;;10527232;28;20263;-78
2021/11/04 20:12:14;;;;;;;8.00;5.63;;;;;8.30;100809.00;;;;10511198;28;20231;-78
2021/11/04 20:17:17;;;;;;;11.87;5.27;;;;;8.30;100814.00;;;;10527241;28;20238;-79
2021/11/04 20:22:20;;;;;;;7.93;4.50;;;;;8.30;100812.00;;;;10493562;28;20605;-78
2021/11/04 20:27:21;;;;;;;11.93;5.77;;;;;8.30;100827.00;;;;10510135;28;20193;-78
2021/11/04 20:32:23;;;;;;;9.47;5.57;;;;;8.30;100832.00;;;;10547771;28;20732;-77
2021/11/04 20:37:25;;;;;;;14.40;5.87;;;;;8.30;100838.00;;;;10534824;28;20245;-78
2021/11/04 20:42:28;;;;;;;9.97;5.83;;;;;8.30;100834.00;;;;10534494;28;20204;-78
2021/11/04 20:47:30;;;;;;;8.90;6.07;;;;;8.30;100855.00;;;;10517894;28;20211;-78
2021/11/04 20:52:32;;;;;;;11.27;5.83;;;;;8.20;100865.00;;;;10534654;28;20208;-78
2021/11/04 20:57:34;;;;;;;10.03;5.10;;;;;8.20;100866.00;;;;10534513;28;20245;-78
2021/11/04 21:02:36;;;;;;;10.40;5.27;;;;;8.10;100876.00;;;;10517387;28;20222;-78
2021/11/04 21:07:43;;;;;;;9.93;5.87;;;;;8.10;100879.00;;;;10567160;28;20204;-78
2021/11/04 21:12:45;;;;;;;11.23;5.10;;;;;8.10;100891.00;;;;10516652;28;20254;-78
2021/11/04 21:17:49;;;;;;;8.77;3.97;;;;;8.10;100896.00;;;;10533393;28;20239;-78
2021/11/04 21:22:53;;;;;;;5.73;3.87;;;;;8.10;100893.00;;;;10516311;28;20577;-78
2021/11/04 21:27:55;;;;;;;8.07;3.73;;;;;8.10;100898.00;;;;10549305;28;20192;-78
2021/11/04 21:32:57;;;;;;;3.60;2.90;;;;;8.00;100904.00;;;;10533000;28;20249;-78
2021/11/04 21:38:00;;;;;;;3.80;2.53;;;;;8.00;100925.00;;;;10532960;28;20597;-78
2021/11/04 21:43:04;;;;;;;6.53;3.40;;;;;7.90;100923.00;;;;10516442;28;20184;-78
2021/11/04 21:48:07;;;;;;;4.07;2.47;;;;;7.90;100927.00;;;;10549278;28;20212;-78
2021/11/04 21:53:09;;;;;;;5.10;2.00;;;;;7.90;100940.00;;;;10531546;28;20235;-78
2021/11/04 21:58:11;;;;;;;4.40;1.93;;;;;7.90;100947.00;;;;10528967;28;20227;-78
2021/11/04 22:03:13;;;;;;;2.90;1.77;;;;;7.70;100946.00;;;;10565447;28;20556;-78
2021/11/04 22:08:15;;;;;;;7.30;3.23;;;;;7.60;100951.00;;;;10565322;28;20188;-78
2021/11/04 22:13:17;;;;;;;6.10;3.90;;;;;7.50;100951.00;;;;10548673;28;20204;-78
2021/11/04 22:18:20;;;;;;;9.50;5.07;;;;;7.40;100957.00;;;;10554816;28;20188;-78
2021/11/04 22:23:25;;;;;;;11.87;4.77;;;;;7.40;100956.00;;;;10539927;28;20562;-78
2021/11/04 22:28:28;;;;;;;8.37;4.67;;;;;7.40;100960.00;;;;10572911;28;20199;-77
2021/11/04 22:33:30;;;;;;;7.67;3.83;;;;;7.30;100972.00;;;;10573160;28;20205;-77
2021/11/04 22:38:32;;;;;;;6.47;3.57;;;;;7.30;100980.00;;;;10572449;28;20204;-77
2021/11/04 22:43:35;;;;;;;6.60;3.67;;;;;7.30;100988.00;;;;10573083;28;20169;-77
2021/11/04 22:48:37;;;;;;;4.10;3.07;;;;;7.30;100985.00;;;;10539200;28;20257;-77
2021/11/04 22:53:40;;;;;;;7.83;3.47;;;;;7.30;101006.00;;;;10539126;28;20261;-77
2021/11/04 22:58:43;;;;;;;6.03;3.23;;;;;7.20;101003.00;;;;10538964;28;20192;-78
2021/11/04 23:03:46;;;;;;;8.23;3.53;;;;;7.20;101016.00;;;;10556217;28;20222;-77
2021/11/04 23:08:48;;;;;;;10.67;3.43;;;;;7.20;101025.00;;;;10529949;28;20201;-78
2021/11/04 23:13:50;;;;;;;5.77;2.63;;;;;7.30;101033.00;;;;10529407;28;20270;-78
2021/11/04 23:18:52;;;;;;;5.60;2.63;;;;;7.20;101035.00;;;;10496360;28;20197;-77
2021/11/04 23:23:54;;;;;;;4.57;2.50;;;;;7.20;101045.00;;;;10554491;28;20195;-78
2021/11/04 23:28:56;;;;;;;7.47;3.13;;;;;7.10;101051.00;;;;10536565;28;20188;-78
2021/11/04 23:33:59;;;;;;;9.87;2.93;;;;;7.00;101059.00;;;;10571097;28;20240;-78
2021/11/04 23:39:04;;;;;;;4.70;2.43;;;;;7.00;101063.00;;;;10537307;28;20192;-78
2021/11/04 23:44:06;;;;;;;5.03;3.17;;;;;7.00;101068.00;;;;10536752;28;20195;-78
2021/11/04 23:49:12;;;;;;;4.97;3.30;;;;;7.00;101078.00;;;;10521046;28;20216;-78
2021/11/04 23:54:14;;;;;;;5.00;2.87;;;;;6.90;101094.00;;;;10552725;28;20205;-77
2021/11/04 23:59:16;;;;;;;5.03;3.10;;;;;6.90;101093.00;;;;10508316;28;20614;-78
